Time;durP1;ratioP1;P1;durP2;ratioP2;P2;SDS_P1;SDS_P2;PMS_P1;PMS_P2;Temp;Humidity;BMP_temperature;BMP_pressure;BME280_temperature;BME280_humidity;BME280_pressure;Samples;Min_cycle;Max_cycle;Signal;HPM_P1;HPM_P2
2022/03/05 00:01:16;;;;;;;16.80;11.15;;;;;;;-1.16;100.00;98930.63;10389811;28;20029;-56
2022/03/05 00:06:20;;;;;;;15.27;10.80;;;;;;;-1.15;100.00;98927.91;10394509;28;20044;-57
2022/03/05 00:11:23;;;;;;;16.45;10.93;;;;;;;-1.13;100.00;98930.50;10389255;28;20041;-55
2022/03/05 00:16:26;;;;;;;15.27;10.65;;;;;;;-1.14;100.00;98921.69;10364753;28;20053;-60
2022/03/05 00:21:31;;;;;;;16.88;10.73;;;;;;;-1.18;100.00;98920.16;10375136;28;20034;-58
2022/03/05 00:26:34;;;;;;;13.68;10.95;;;;;;;-1.21;100.00;98922.06;10384820;28;20048;-59
2022/03/05 00:31:38;;;;;;;17.55;11.40;;;;;;;-1.30;100.00;98918.94;10361480;28;20117;-57
2022/03/05 00:36:42;;;;;;;17.30;11.38;;;;;;;-1.36;100.00;98928.94;10367429;28;20129;-61
2022/03/05 00:41:46;;;;;;;16.65;11.80;;;;;;;-1.41;100.00;98922.09;10367445;28;20494;-61
2022/03/05 00:46:49;;;;;;;18.10;12.60;;;;;;;-1.43;100.00;98929.25;10363481;28;20159;-58
2022/03/05 00:51:54;;;;;;;14.77;10.85;;;;;;;-1.47;100.00;98929.47;10366501;28;20056;-59
2022/03/05 00:56:59;;;;;;;15.25;10.20;;;;;;;-1.52;100.00;98931.47;10368169;28;20042;-55
2022/03/05 01:02:03;;;;;;;17.48;10.73;;;;;;;-1.57;100.00;98927.25;10363428;28;20137;-62
2022/03/05 01:07:08;;;;;;;20.35;11.18;;;;;;;-1.63;100.00;98922.25;10365150;28;20076;-59
2022/03/05 01:12:11;;;;;;;18.75;11.80;;;;;;;-1.64;100.00;98931.13;10361575;28;20355;-61
2022/03/05 01:17:14;;;;;;;18.77;11.82;;;;;;;-1.62;100.00;98928.38;10357043;28;20052;-56
2022/03/05 01:22:19;;;;;;;17.25;11.45;;;;;;;-1.67;100.00;98928.59;10360249;28;20052;-58
2022/03/05 01:27:22;;;;;;;17.17;11.48;;;;;;;-1.67;100.00;98933.06;10363192;28;20038;-59
2022/03/05 01:32:25;;;;;;;17.95;11.95;;;;;;;-1.69;100.00;98929.63;10361845;28;20521;-61
2022/03/05 01:37:29;;;;;;;17.75;11.98;;;;;;;-1.68;100.00;98932.19;10365399;28;20045;-60
2022/03/05 01:42:32;;;;;;;19.55;11.63;;;;;;;-1.67;100.00;98930.41;10358191;28;20052;-56
2022/03/05 01:47:37;;;;;;;17.13;11.43;;;;;;;-1.64;100.00;98924.97;10360383;28;20124;-58
2022/03/05 01:52:42;;;;;;;19.20;11.98;;;;;;;-1.64;100.00;98925.84;10365264;28;20061;-62
2022/03/05 01:57:45;;;;;;;19.60;13.02;;;;;;;-1.60;100.00;98924.78;10369958;28;20060;-60
2022/03/05 02:02:48;;;;;;;22.00;13.32;;;;;;;-1.54;100.00;98926.25;10366931;28;20046;-61
2022/03/05 02:07:53;;;;;;;18.15;12.23;;;;;;;-1.52;100.00;98912.97;10370517;28;20446;-61
2022/03/05 02:12:57;;;;;;;17.55;12.15;;;;;;;-1.51;100.00;98918.16;10390793;28;20130;-56
2022/03/05 02:18:00;;;;;;;19.00;12.20;;;;;;;-1.54;100.00;98918.34;10384565;28;20050;-63
2022/03/05 02:23:04;;;;;;;20.90;12.35;;;;;;;-1.52;100.00;98923.53;10376255;28;20046;-53
2022/03/05 02:28:07;;;;;;;18.45;12.15;;;;;;;-1.51;100.00;98919.97;10371370;28;20042;-61
2022/03/05 02:33:11;;;;;;;17.65;11.70;;;;;;;-1.50;100.00;98914.59;10365785;28;20132;-56
2022/03/05 02:38:17;;;;;;;19.00;12.00;;;;;;;-1.51;100.00;98919.97;10370360;28;20096;-60
2022/03/05 02:43:21;;;;;;;19.20;12.35;;;;;;;-1.50;100.00;98908.47;10367589;28;20042;-54
2022/03/05 02:48:25;;;;;;;20.67;12.65;;;;;;;-1.47;100.00;98903.06;10367138;28;20132;-54
2022/03/05 02:53:31;;;;;;;18.52;11.55;;;;;;;-1.45;100.00;98906.44;10374642;28;20056;-55
2022/03/05 02:58:34;;;;;;;17.80;12.25;;;;;;;-1.45;100.00;98907.31;10366064;28;20045;-57
2022/03/05 03:03:37;;;;;;;18.00;11.90;;;;;;;-1.44;100.00;98903.75;10363977;28;20426;-58
2022/03/05 03:08:41;;;;;;;21.55;12.63;;;;;;;-1.43;100.00;98896.66;10366744;28;20422;-55
2022/03/05 03:13:44;;;;;;;18.92;12.18;;;;;;;-1.47;100.00;98892.47;10360673;28;20702;-58
2022/03/05 03:18:47;;;;;;;22.23;12.80;;;;;;;-1.44;100.00;98892.31;10364316;28;20042;-61
2022/03/05 03:23:51;;;;;;;19.77;12.60;;;;;;;-1.42;100.00;98893.97;10364953;28;20072;-57
2022/03/05 03:28:54;;;;;;;18.50;12.07;;;;;;;-1.38;100.00;98894.66;10365553;28;20105;-57
2022/03/05 03:33:57;;;;;;;17.60;11.75;;;;;;;-1.33;100.00;98897.09;10365797;28;20045;-58
2022/03/05 03:39:02;;;;;;;20.02;12.38;;;;;;;-1.32;100.00;98897.00;10365758;28;20052;-56
2022/03/05 03:44:06;;;;;;;17.40;11.98;;;;;;;-1.28;100.00;98901.22;10366000;28;20051;-56
2022/03/05 03:49:09;;;;;;;17.13;11.20;;;;;;;-1.27;100.00;98895.00;10363180;28;20835;-55
2022/03/05 03:54:13;;;;;;;18.00;12.02;;;;;;;-1.32;100.00;98899.66;10363162;28;20045;-59
2022/03/05 03:59:16;;;;;;;17.42;11.65;;;;;;;-1.31;100.00;98900.53;10362604;28;20046;-57
2022/03/05 04:04:19;;;;;;;17.25;11.68;;;;;;;-1.30;100.00;98905.72;10386856;28;20095;-58
2022/03/05 04:09:24;;;;;;;17.27;11.55;;;;;;;-1.29;100.00;98898.63;10382163;28;20049;-58
2022/03/05 04:14:27;;;;;;;15.93;10.63;;;;;;;-1.29;100.00;98898.63;10365643;28;20042;-55
2022/03/05 04:19:30;;;;;;;17.27;12.18;;;;;;;-1.27;100.00;98908.22;10363413;28;20501;-53
2022/03/05 04:24:35;;;;;;;17.88;11.90;;;;;;;-1.23;100.00;98910.72;10366784;28;20865;-56
2022/03/05 04:29:38;;;;;;;17.83;11.88;;;;;;;-1.25;100.00;98905.50;10364425;28;20046;-54
2022/03/05 04:34:41;;;;;;;16.80;11.70;;;;;;;-1.22;100.00;98915.06;10362551;28;20046;-58
2022/03/05 04:39:47;;;;;;;18.25;11.65;;;;;;;-1.23;100.00;98922.16;10361833;28;20049;-57
2022/03/05 04:44:50;;;;;;;18.40;12.63;;;;;;;-1.25;100.00;98919.59;10363250;28;20040;-59
2022/03/05 04:49:53;;;;;;;18.38;12.13;;;;;;;-1.25;100.00;98916.94;10359947;28;20416;-54
2022/03/05 04:54:57;;;;;;;19.60;12.60;;;;;;;-1.22;100.00;98926.50;10364505;28;20050;-56
2022/03/05 05:00:00;;;;;;;21.35;12.82;;;;;;;-1.21;100.00;98930.00;10361235;28;20060;-55
2022/03/05 05:05:05;;;;;;;19.40;12.73;;;;;;;-1.18;100.00;98938.66;10375485;28;20136;-54
2022/03/05 05:10:10;;;;;;;20.85;13.20;;;;;;;-1.16;100.00;98938.56;10359867;28;21238;-57
2022/03/05 05:15:13;;;;;;;19.88;13.10;;;;;;;-1.16;100.00;98951.78;10362110;28;20041;-54
2022/03/05 05:20:16;;;;;;;20.58;12.65;;;;;;;-1.20;100.00;98953.72;10359202;28;20473;-60
2022/03/05 05:25:21;;;;;;;19.75;12.90;;;;;;;-1.19;100.00;98949.28;10364038;28;20042;-54
2022/03/05 05:30:23;;;;;;;19.00;12.63;;;;;;;-1.20;100.00;98939.63;10368245;28;20470;-55
2022/03/05 05:35:27;;;;;;;20.05;12.57;;;;;;;-1.21;100.00;98953.78;10368984;28;20065;-60
2022/03/05 05:40:31;;;;;;;18.38;11.95;;;;;;;-1.26;100.00;98946.94;10382036;28;20041;-55
2022/03/05 05:45:34;;;;;;;15.45;11.02;;;;;;;-1.31;100.00;98954.22;10385672;28;20038;-55
2022/03/05 05:50:40;;;;;;;16.70;11.80;;;;;;;-1.38;100.00;98941.38;10400900;22;20107;-53
2022/03/05 05:55:44;;;;;;;18.98;12.45;;;;;;;-1.47;100.00;98940.88;10441486;28;20126;-55
2022/03/05 06:00:51;;;;;;;18.75;12.10;;;;;;;-1.53;100.00;98945.59;10438177;28;20041;-56
2022/03/05 06:05:54;;;;;;;19.20;12.50;;;;;;;-1.59;100.00;98944.94;10414359;28;20037;-57
2022/03/05 06:10:59;;;;;;;21.13;13.85;;;;;;;-1.65;100.00;98947.88;10411586;28;20115;-58
2022/03/05 06:16:02;;;;;;;20.27;12.93;;;;;;;-1.67;100.00;98957.66;10407853;28;20450;-56
2022/03/05 06:21:06;;;;;;;22.48;13.38;;;;;;;-1.69;100.00;98962.16;10405223;28;20061;-57
2022/03/05 06:26:10;;;;;;;20.67;13.65;;;;;;;-1.72;100.00;98970.25;10408678;28;20515;-56
2022/03/05 06:31:13;;;;;;;21.15;13.93;;;;;;;-1.74;100.00;98966.81;10408896;28;20037;-58
2022/03/05 06:36:17;;;;;;;24.08;14.50;;;;;;;-1.76;100.00;98973.94;10406731;28;20049;-60
2022/03/05 06:41:22;;;;;;;25.10;14.52;;;;;;;-1.76;100.00;98968.66;10410160;28;20498;-59
2022/03/05 06:46:25;;;;;;;21.55;14.38;;;;;;;-1.76;100.00;98985.34;10411026;28;20050;-58
2022/03/05 06:51:28;;;;;;;26.10;16.15;;;;;;;-1.68;100.00;98979.72;10412680;28;20061;-60
2022/03/05 06:56:32;;;;;;;24.02;14.80;;;;;;;-1.64;100.00;98983.97;10409376;28;20055;-57
2022/03/05 07:01:35;;;;;;;22.35;14.30;;;;;;;-1.58;100.00;98994.22;10402775;28;20041;-57
2022/03/05 07:06:38;;;;;;;25.48;14.95;;;;;;;-1.50;100.00;98995.69;10404140;28;20053;-57
2022/03/05 07:11:43;;;;;;;23.35;14.65;;;;;;;-1.47;100.00;98990.25;10433721;28;20042;-56
2022/03/05 07:16:46;;;;;;;23.75;15.35;;;;;;;-1.43;100.00;99007.66;10424679;28;20132;-58
2022/03/05 07:21:49;;;;;;;25.02;15.05;;;;;;;-1.42;100.00;99004.97;10404532;28;20049;-60
2022/03/05 07:26:54;;;;;;;24.52;14.75;;;;;;;-1.40;100.00;99002.25;10407825;28;20048;-59
2022/03/05 07:31:57;;;;;;;21.83;14.63;;;;;;;-1.41;100.00;99011.09;10409564;28;20045;-58
2022/03/05 07:37:00;;;;;;;23.92;15.48;;;;;;;-1.36;100.00;99019.69;10405641;28;20050;-57
2022/03/05 07:42:06;;;;;;;30.95;15.95;;;;;;;-1.32;100.00;99030.97;10406807;28;20049;-55
2022/03/05 07:47:10;;;;;;;25.25;15.77;;;;;;;-1.27;100.00;99029.84;10402979;28;20045;-59
2022/03/05 07:52:13;;;;;;;25.70;17.00;;;;;;;-1.20;100.00;99024.25;10414724;28;20057;-57
2022/03/05 07:57:18;;;;;;;31.80;18.08;;;;;;;-1.15;100.00;99027.53;10417571;28;20075;-57
2022/03/05 08:02:21;;;;;;;29.15;17.52;;;;;;;-1.05;100.00;99028.81;10409430;28;20049;-61
2022/03/05 08:07:27;;;;;;;31.20;18.48;;;;;;;-0.93;100.00;99033.53;10407637;28;20057;-58
2022/03/05 08:12:32;;;;;;;27.25;17.25;;;;;;;-0.74;100.00;99042.38;10415294;28;20044;-60
2022/03/05 08:17:35;;;;;;;23.50;16.83;;;;;;;-0.57;100.00;99044.19;10413678;28;20045;-60
2022/03/05 08:22:38;;;;;;;24.67;15.30;;;;;;;-0.49;100.00;99040.22;10421618;28;20151;-60
2022/03/05 08:27:42;;;;;;;23.88;15.57;;;;;;;-0.35;100.00;99036.88;10423593;28;20051;-60
2022/03/05 08:32:58;;;;;;;23.50;16.25;;;;;;;-0.27;100.00;99041.78;10421293;28;20067;-58
2022/03/05 08:38:04;;;;;;;21.63;14.73;;;;;;;-0.25;100.00;99033.75;10464377;28;20037;-57
2022/03/05 08:43:09;;;;;;;24.15;15.75;;;;;;;-0.19;100.00;99038.75;10454495;28;20053;-60
2022/03/05 08:48:12;;;;;;;23.83;15.55;;;;;;;-0.15;100.00;99035.00;10444689;28;20139;-59
2022/03/05 08:53:15;;;;;;;23.52;15.18;;;;;;;-0.05;100.00;99030.94;10422368;28;20055;-61
2022/03/05 08:58:20;;;;;;;22.13;15.15;;;;;;;0.08;100.00;99025.88;10426724;28;20087;-60
2022/03/05 09:03:23;;;;;;;20.88;14.88;;;;;;;0.30;100.00;99028.25;10432388;28;20500;-60
2022/03/05 09:08:26;;;;;;;16.13;12.85;;;;;;;0.42;100.00;99023.22;10437779;28;20053;-60
2022/03/05 09:13:30;;;;;;;14.18;11.57;;;;;;;0.57;100.00;99021.56;10412758;28;20037;-56
2022/03/05 09:18:34;;;;;;;12.50;9.48;;;;;;;0.73;100.00;99003.88;10418334;28;20100;-60
2022/03/05 09:23:37;;;;;;;12.52;9.38;;;;;;;0.90;100.00;98997.63;10415750;28;20124;-59
2022/03/05 09:28:42;;;;;;;10.40;8.45;;;;;;;1.06;100.00;98996.75;10413795;28;20420;-60
2022/03/05 09:33:45;;;;;;;13.68;8.27;;;;;;;1.23;100.00;98994.00;10420206;28;20493;-60
2022/03/05 09:38:48;;;;;;;10.27;8.38;;;;;;;1.42;100.00;98992.06;10415031;28;20041;-60
2022/03/05 09:43:52;;;;;;;11.32;8.55;;;;;;;1.51;100.00;98986.25;10410475;28;20053;-61
2022/03/05 09:48:55;;;;;;;10.93;8.63;;;;;;;1.53;100.00;98994.97;10408688;28;20056;-61
2022/03/05 09:53:58;;;;;;;8.65;7.32;;;;;;;1.56;100.00;98988.63;10408963;28;20045;-61
2022/03/05 09:59:03;;;;;;;9.10;7.80;;;;;;;1.63;100.00;98984.66;10410554;28;20033;-58
2022/03/05 10:04:19;;;;;;;9.80;6.93;;;;;;;1.77;100.00;98979.38;10408557;28;20046;-61
2022/03/05 10:09:22;;;;;;;6.07;5.10;;;;;;;1.85;100.00;98979.78;10407409;28;20072;-60
2022/03/05 10:14:27;;;;;;;6.55;5.00;;;;;;;2.11;100.00;98974.69;10407492;28;20077;-60
2022/03/05 10:19:30;;;;;;;6.85;5.03;;;;;;;2.25;100.00;98972.97;10405378;28;20049;-62
2022/03/05 10:24:35;;;;;;;8.05;5.55;;;;;;;2.21;100.00;98968.78;10408716;28;20052;-59
2022/03/05 10:30:11;;;;;;;8.38;5.68;;;;;;;2.23;100.00;98975.75;10409283;28;20054;-61
2022/03/05 10:35:19;;;;;;;7.30;5.90;;;;;;;2.25;100.00;98965.84;10417631;28;20102;-61
2022/03/05 10:40:27;;;;;;;7.18;5.70;;;;;;;2.35;100.00;98973.28;10427383;28;20417;-58
2022/03/05 10:45:49;;;;;;;8.77;6.32;;;;;;;2.49;100.00;98961.75;10422421;28;20055;-60
2022/03/05 10:51:03;;;;;;;8.30;5.80;;;;;;;2.51;100.00;98960.72;10411878;28;20068;-60
2022/03/05 10:56:30;;;;;;;7.50;5.15;;;;;;;2.59;100.00;98950.44;10412005;28;20042;-58
2022/03/05 11:01:36;;;;;;;6.97;5.65;;;;;;;2.75;100.00;98952.13;10408920;28;20038;-60
2022/03/05 11:06:42;;;;;;;6.65;5.13;;;;;;;3.10;100.00;98934.81;10409118;28;20060;-60
2022/03/05 11:11:45;;;;;;;6.13;4.88;;;;;;;3.08;100.00;98930.44;10412187;28;20124;-60
2022/03/05 11:16:50;;;;;;;6.18;5.57;;;;;;;3.13;100.00;98937.25;10406283;28;20049;-60
2022/03/05 11:21:53;;;;;;;7.07;5.63;;;;;;;3.22;100.00;98929.53;10405428;28;20619;-58
2022/03/05 11:26:57;;;;;;;5.95;5.20;;;;;;;3.33;100.00;98931.50;10411563;28;20045;-61
2022/03/05 11:32:14;;;;;;;5.32;4.72;;;;;;;3.35;100.00;98926.03;10407366;28;20049;-61
2022/03/05 11:37:18;;;;;;;5.93;4.43;;;;;;;3.40;100.00;98915.94;10409354;28;20220;-60
2022/03/05 11:42:30;;;;;;;7.18;4.10;;;;;;;3.62;100.00;98915.31;10408048;28;20053;-59
2022/03/05 11:47:37;;;;;;;4.47;3.70;;;;;;;3.75;100.00;98910.03;10400037;28;20163;-61
2022/03/05 11:53:06;;;;;;;4.85;3.88;;;;;;;3.87;100.00;98915.47;10404458;28;20474;-61
2022/03/05 11:58:25;;;;;;;5.18;3.53;;;;;;;3.93;100.00;98907.91;10406376;28;20052;-61
2022/03/05 12:03:42;;;;;;;4.55;3.70;;;;;;;3.93;100.00;98907.91;10407207;28;20407;-62
2022/03/05 12:08:53;;;;;;;4.68;3.58;;;;;;;3.99;100.00;98893.28;10401580;28;20047;-61
2022/03/05 12:14:00;;;;;;;4.10;3.20;;;;;;;4.24;100.00;98883.50;10411244;28;20444;-62
2022/03/05 12:19:04;;;;;;;3.33;2.70;;;;;;;4.29;100.00;98884.06;10409859;28;20116;-61
2022/03/05 12:24:10;;;;;;;3.28;2.90;;;;;;;4.35;100.00;98877.44;10421856;28;20041;-61
2022/03/05 12:29:13;;;;;;;3.03;2.72;;;;;;;4.46;100.00;98873.03;10428408;28;20091;-66
2022/03/05 12:34:25;;;;;;;4.18;3.10;;;;;;;4.55;100.00;98866.16;10432247;28;20531;-64
2022/03/05 12:39:29;;;;;;;3.50;2.72;;;;;;;4.55;100.00;98871.50;10427379;28;20102;-62
2022/03/05 12:44:34;;;;;;;3.20;2.60;;;;;;;4.65;100.00;98857.47;10432576;28;20084;-61
2022/03/05 12:49:39;;;;;;;2.97;2.40;;;;;;;4.76;93.45;98862.91;10436090;28;20805;-61
2022/03/05 12:54:45;;;;;;;2.47;2.28;;;;;;;4.87;100.00;98864.75;10427250;28;20137;-59
2022/03/05 12:59:49;;;;;;;4.28;3.10;;;;;;;4.98;100.00;98866.63;10432329;28;20053;-61
2022/03/05 13:04:53;;;;;;;3.58;2.97;;;;;;;4.97;100.00;98856.91;10431250;28;20040;-62
2022/03/05 13:10:07;;;;;;;3.05;2.75;;;;;;;4.68;100.00;98855.44;10434787;28;20416;-63
2022/03/05 13:15:22;;;;;;;3.03;2.72;;;;;;;4.70;100.00;98856.19;10443942;28;20118;-65
2022/03/05 13:20:31;;;;;;;3.13;2.53;;;;;;;4.67;100.00;98847.53;10428749;28;20577;-63
2022/03/05 13:25:45;;;;;;;2.72;2.50;;;;;;;4.69;96.95;98845.59;10407709;28;20045;-61
2022/03/05 13:30:51;;;;;;;2.53;2.33;;;;;;;4.89;100.00;98844.97;10408646;28;20140;-62
2022/03/05 13:35:56;;;;;;;2.90;2.60;;;;;;;5.03;100.00;98848.44;10407318;28;20050;-62
2022/03/05 13:40:58;;;;;;;2.40;2.20;;;;;;;5.12;100.00;98853.06;10406026;28;20144;-62
2022/03/05 13:46:01;;;;;;;2.78;2.40;;;;;;;5.03;86.35;98851.97;10409139;28;20038;-62
2022/03/05 13:51:13;;;;;;;2.92;2.50;;;;;;;5.03;91.13;98848.44;10407374;28;20422;-62
2022/03/05 13:56:18;;;;;;;3.42;2.08;;;;;;;5.00;85.63;98848.69;10410673;28;20045;-60
2022/03/05 14:01:32;;;;;;;3.95;2.30;;;;;;;4.91;86.73;98855.56;10410147;28;20152;-60
2022/03/05 14:06:47;;;;;;;4.38;2.50;;;;;;;4.81;94.43;98846.53;10415891;28;20050;-62
2022/03/05 14:12:12;;;;;;;2.60;2.40;;;;;;;4.72;89.79;98848.06;10408195;28;20049;-63
2022/03/05 14:17:29;;;;;;;3.33;2.35;;;;;;;4.81;89.87;98850.03;10406205;28;20081;-63
2022/03/05 14:22:36;;;;;;;2.28;2.10;;;;;;;4.74;87.88;98844.31;10423113;28;20048;-61
2022/03/05 14:27:40;;;;;;;2.20;2.08;;;;;;;4.70;86.72;98841.97;10438643;28;20516;-63
2022/03/05 14:32:44;;;;;;;2.10;1.90;;;;;;;4.69;79.36;98848.28;10403491;28;20045;-62
2022/03/05 14:37:49;;;;;;;2.10;1.90;;;;;;;4.65;79.04;98852.13;10412749;28;20403;-63
2022/03/05 14:42:53;;;;;;;2.28;2.00;;;;;;;4.57;72.14;98850.88;10412907;28;20053;-62
2022/03/05 14:48:05;;;;;;;2.13;1.80;;;;;;;4.57;76.15;98845.56;10414498;28;20084;-63
2022/03/05 14:53:10;;;;;;;2.00;1.70;;;;;;;4.55;71.29;98844.81;10411204;28;20068;-62
2022/03/05 14:58:13;;;;;;;1.70;1.60;;;;;;;4.49;62.87;98847.94;10421033;28;20091;-62
2022/03/05 15:03:16;;;;;;;1.80;1.70;;;;;;;4.48;69.12;98851.56;10405639;28;20053;-63
2022/03/05 15:08:21;;;;;;;1.90;1.75;;;;;;;4.45;71.94;98838.44;10414799;28;20207;-63
2022/03/05 15:13:24;;;;;;;2.58;1.90;;;;;;;4.41;72.03;98844.97;10418663;28;20144;-63
2022/03/05 15:18:27;;;;;;;1.85;1.73;;;;;;;4.39;76.53;98842.41;10423492;28;20053;-62
2022/03/05 15:23:32;;;;;;;2.45;2.05;;;;;;;4.35;80.13;98832.06;10423708;28;20049;-63
2022/03/05 15:28:36;;;;;;;2.10;1.83;;;;;;;4.33;82.86;98840.19;10423436;28;20052;-62
2022/03/05 15:33:43;;;;;;;2.13;1.92;;;;;;;4.18;75.19;98836.81;10419969;28;20406;-62
2022/03/05 15:38:47;;;;;;;2.13;1.90;;;;;;;4.10;76.56;98834.72;10418423;28;20796;-62
2022/03/05 15:43:50;;;;;;;2.03;1.83;;;;;;;4.04;80.46;98834.28;10422438;28;20515;-61
2022/03/05 15:48:57;;;;;;;2.40;1.80;;;;;;;3.98;81.19;98836.44;10423234;28;20118;-63
2022/03/05 15:54:02;;;;;;;3.22;1.80;;;;;;;3.89;82.46;98836.22;10404886;28;20060;-62
2022/03/05 15:59:06;;;;;;;1.90;1.75;;;;;;;3.84;84.25;98834.75;10419844;28;20052;-62
2022/03/05 16:04:09;;;;;;;2.00;1.80;;;;;;;3.78;82.19;98835.16;10414297;28;20041;-62
2022/03/05 16:09:13;;;;;;;2.00;1.85;;;;;;;3.69;78.75;98830.50;10416717;28;20044;-61
2022/03/05 16:14:16;;;;;;;1.80;1.63;;;;;;;3.67;84.41;98838.59;10419490;28;20468;-61
2022/03/05 16:19:19;;;;;;;2.08;1.88;;;;;;;3.62;82.14;98840.72;10420516;28;20041;-62
2022/03/05 16:24:24;;;;;;;2.85;2.25;;;;;;;3.59;88.32;98840.09;10417340;28;20049;-63
2022/03/05 16:29:27;;;;;;;2.30;2.00;;;;;;;3.52;90.56;98840.53;10427233;28;20137;-63
2022/03/05 16:34:30;;;;;;;2.30;2.10;;;;;;;3.46;91.67;98838.28;10421512;28;20051;-62
2022/03/05 16:39:36;;;;;;;2.22;2.00;;;;;;;3.36;94.72;98835.38;10420827;28;20045;-63
2022/03/05 16:44:39;;;;;;;2.67;1.80;;;;;;;3.31;94.17;98832.19;10412737;28;20052;-62
2022/03/05 16:49:43;;;;;;;3.58;2.10;;;;;;;3.23;96.49;98834.53;10416615;28;20051;-62
2022/03/05 16:54:48;;;;;;;2.03;1.83;;;;;;;3.16;97.08;98833.22;10417467;28;20572;-61
2022/03/05 16:59:51;;;;;;;1.77;1.60;;;;;;;3.12;100.00;98835.25;10413034;28;20045;-62
2022/03/05 17:04:54;;;;;;;2.22;1.60;;;;;;;3.07;100.00;98827.59;10416724;28;20160;-61
2022/03/05 17:10:01;;;;;;;3.08;2.03;;;;;;;2.99;100.00;98827.25;10424068;28;20545;-61
2022/03/05 17:15:05;;;;;;;2.63;2.10;;;;;;;2.90;100.00;98826.06;10423464;28;20040;-62
2022/03/05 17:20:10;;;;;;;4.07;2.00;;;;;;;2.82;100.00;98836.38;10419844;28;20099;-62
2022/03/05 17:25:14;;;;;;;3.40;1.75;;;;;;;2.82;100.00;98847.00;10432991;28;20038;-62
2022/03/05 17:30:17;;;;;;;2.38;1.80;;;;;;;2.68;100.00;98847.91;10433434;28;20047;-62
2022/03/05 17:35:20;;;;;;;2.53;1.77;;;;;;;2.62;100.00;98853.63;10433163;28;20045;-61
2022/03/05 17:40:24;;;;;;;3.03;2.00;;;;;;;2.53;100.00;98854.25;10429711;28;20096;-59
2022/03/05 17:45:27;;;;;;;2.40;1.83;;;;;;;2.46;100.00;98849.31;10428250;28;20040;-58
2022/03/05 17:50:30;;;;;;;2.28;2.00;;;;;;;2.43;100.00;98854.81;10416705;28;20344;-61
2022/03/05 17:55:34;;;;;;;4.70;2.03;;;;;;;2.43;97.60;98859.28;10419158;28;20040;-61
2022/03/05 18:00:40;;;;;;;2.30;1.92;;;;;;;2.36;96.38;98856.16;10417614;28;20091;-64
2022/03/05 18:05:44;;;;;;;2.15;1.92;;;;;;;2.31;92.81;98860.91;10416080;28;20477;-61
2022/03/05 18:10:49;;;;;;;1.95;1.60;;;;;;;2.27;81.59;98865.59;10416707;28;20034;-60
2022/03/05 18:15:55;;;;;;;1.73;1.63;;;;;;;2.27;80.88;98867.41;10410561;28;20313;-61
2022/03/05 18:20:58;;;;;;;4.40;1.90;;;;;;;2.21;85.30;98867.78;10413303;28;20041;-61
2022/03/05 18:26:02;;;;;;;3.72;3.15;;;;;;;2.18;89.45;98870.63;10428309;28;20133;-60
2022/03/05 18:31:06;;;;;;;9.40;7.00;;;;;;;2.14;95.73;98867.31;10408756;28;20037;-58
2022/03/05 18:36:10;;;;;;;2.80;2.50;;;;;;;2.10;97.74;98871.97;10419867;28;20033;-64
2022/03/05 18:41:15;;;;;;;3.55;2.15;;;;;;;2.10;100.00;98871.97;10423715;28;20557;-59
2022/03/05 18:46:21;;;;;;;2.85;2.38;;;;;;;2.08;100.00;98878.34;10417677;28;20045;-62
2022/03/05 18:51:24;;;;;;;5.05;4.03;;;;;;;2.03;100.00;98867.13;10440380;28;20105;-57
2022/03/05 18:56:29;;;;;;;3.30;3.00;;;;;;;1.99;100.00;98879.75;10464859;28;20033;-58
2022/03/05 19:01:32;;;;;;;31.02;25.08;;;;;;;1.89;100.00;98876.81;10465344;28;20029;-61
2022/03/05 19:06:36;;;;;;;13.20;11.52;;;;;;;1.90;100.00;98877.69;10434334;28;20049;-63
2022/03/05 19:11:42;;;;;;;11.43;10.23;;;;;;;1.85;100.00;98880.63;10416695;28;20463;-63
2022/03/05 19:16:45;;;;;;;4.65;4.20;;;;;;;1.83;100.00;98886.00;10410829;28;20107;-61
2022/03/05 19:21:49;;;;;;;6.57;5.63;;;;;;;1.81;100.00;98882.63;10408976;28;20033;-61
2022/03/05 19:26:54;;;;;;;4.53;4.00;;;;;;;1.77;100.00;98886.41;10415552;28;20489;-59
2022/03/05 19:31:57;;;;;;;3.13;2.63;;;;;;;1.77;100.00;98890.84;10419043;28;20485;-58
2022/03/05 19:37:00;;;;;;;3.80;3.20;;;;;;;1.78;100.00;98900.53;10419929;28;20445;-60
2022/03/05 19:42:05;;;;;;;4.47;3.97;;;;;;;1.76;100.00;98900.63;10416703;28;20048;-60
2022/03/05 19:47:09;;;;;;;5.05;4.15;;;;;;;1.74;100.00;98891.06;10425807;28;20125;-61
2022/03/05 19:52:12;;;;;;;6.40;3.75;;;;;;;1.71;100.00;98888.59;10405170;28;20061;-56
2022/03/05 19:57:16;;;;;;;7.63;5.32;;;;;;;1.64;100.00;98890.75;10420259;28;20123;-57
2022/03/05 20:02:19;;;;;;;3.60;2.88;;;;;;;1.57;100.00;98894.75;10419340;28;20053;-58
2022/03/05 20:07:22;;;;;;;4.45;3.70;;;;;;;1.56;100.00;98890.38;10411860;28;20532;-62
2022/03/05 20:12:27;;;;;;;10.82;8.27;;;;;;;1.54;100.00;98891.31;10411376;28;20769;-62
2022/03/05 20:17:30;;;;;;;12.15;9.63;;;;;;;1.48;100.00;98889.00;10416451;28;20049;-63
2022/03/05 20:22:33;;;;;;;7.13;6.07;;;;;;;1.47;100.00;98900.56;10423194;28;20049;-62
2022/03/05 20:27:38;;;;;;;6.40;5.07;;;;;;;1.44;100.00;98905.22;10407962;28;20071;-61
2022/03/05 20:32:42;;;;;;;4.35;3.88;;;;;;;1.37;100.00;98902.06;10423762;28;20045;-58
2022/03/05 20:37:45;;;;;;;5.60;4.68;;;;;;;1.32;100.00;98904.16;10424841;28;20516;-61
2022/03/05 20:42:51;;;;;;;6.72;5.65;;;;;;;1.29;100.00;98907.00;10419323;28;20072;-62
2022/03/05 20:47:53;;;;;;;5.55;4.30;;;;;;;1.21;100.00;98916.28;10420510;28;20120;-61
2022/03/05 20:52:57;;;;;;;7.32;6.35;;;;;;;1.13;100.00;98922.97;10419886;28;20061;-60
2022/03/05 20:58:01;;;;;;;5.47;4.50;;;;;;;1.04;100.00;98919.03;10422429;28;20165;-62
2022/03/05 21:03:05;;;;;;;7.13;4.00;;;;;;;0.95;100.00;98923.06;10429366;28;20041;-61
2022/03/05 21:08:55;;;;;;;9.25;5.75;;;;;;;0.83;100.00;98921.13;10341999;28;20062;-59
2022/03/05 21:14:00;;;;;;;22.92;17.17;;;;;;;0.76;100.00;98921.47;10319514;28;20054;-60
2022/03/05 21:19:03;;;;;;;5.57;5.07;;;;;;;0.71;100.00;98920.03;10337579;28;20062;-61
2022/03/05 21:24:06;;;;;;;3.83;3.30;;;;;;;0.65;100.00;98917.75;10360854;28;20057;-61
2022/03/05 21:29:11;;;;;;;3.67;3.05;;;;;;;0.61;100.00;98917.03;10423839;28;20051;-59
2022/03/05 21:34:14;;;;;;;5.53;2.97;;;;;;;0.56;100.00;98922.59;10435528;28;20072;-60
2022/03/05 21:39:17;;;;;;;3.90;3.00;;;;;;;0.49;100.00;98913.28;10439346;28;20524;-60
2022/03/05 21:44:22;;;;;;;5.57;3.35;;;;;;;0.44;100.00;98925.94;10431278;28;20045;-60
2022/03/05 21:49:25;;;;;;;4.85;3.28;;;;;;;0.38;100.00;98915.66;10430124;28;20448;-60
2022/03/05 21:54:31;;;;;;;4.85;3.38;;;;;;;0.36;100.00;98917.53;10422834;28;20057;-58
2022/03/05 21:59:36;;;;;;;4.43;3.20;;;;;;;0.32;100.00;98918.66;10427031;28;20045;-61
2022/03/05 22:04:39;;;;;;;4.40;3.90;;;;;;;0.30;100.00;98922.22;10428654;28;20055;-61
2022/03/05 22:09:42;;;;;;;4.90;3.85;;;;;;;0.19;100.00;98921.97;10426657;28;20091;-60
2022/03/05 22:14:48;;;;;;;4.35;3.30;;;;;;;0.06;100.00;98924.44;10427778;28;20076;-56
2022/03/05 22:19:55;;;;;;;5.82;3.70;;;;;;;-0.06;100.00;98917.13;10417945;28;20128;-58
2022/03/05 22:24:58;;;;;;;4.80;3.60;;;;;;;-0.19;100.00;98916.94;10433456;28;20053;-58
2022/03/05 22:30:03;;;;;;;4.72;3.67;;;;;;;-0.33;100.00;98922.94;10427357;28;20049;-55
2022/03/05 22:35:07;;;;;;;5.38;3.80;;;;;;;-0.47;100.00;98913.09;10422228;28;20049;-59
2022/03/05 22:40:12;;;;;;;5.50;3.80;;;;;;;-0.58;100.00;98918.06;10429580;28;20147;-60
2022/03/05 22:45:17;;;;;;;5.68;3.70;;;;;;;-0.68;100.00;98921.19;10430045;28;20042;-59
2022/03/05 22:50:20;;;;;;;3.88;3.20;;;;;;;-0.79;100.00;98908.50;10428790;28;20044;-60
2022/03/05 22:55:23;;;;;;;5.05;4.00;;;;;;;-0.88;100.00;98908.97;10428476;28;20088;-57
2022/03/05 23:01:09;;;;;;;5.05;3.85;;;;;;;-0.97;100.00;98910.28;10423397;28;20369;-57
2022/03/05 23:06:14;;;;;;;5.20;4.15;;;;;;;-1.04;100.00;98916.81;10406590;28;20053;-58
2022/03/05 23:11:16;;;;;;;4.55;4.05;;;;;;;-1.06;100.00;98909.91;10421472;28;20394;-58
2022/03/05 23:16:20;;;;;;;4.43;4.03;;;;;;;-1.09;100.00;98910.88;10423456;28;20425;-58
2022/03/05 23:21:25;;;;;;;6.35;4.13;;;;;;;-1.14;100.00;98918.19;10427584;28;20401;-58